sensor_id;sensor_type;location;lat;lon;timestamp;temperature;humidity
79244;SHT31;68672;42.676;23.356;2023-06-14T00:00:48;18.43;79.45
79244;SHT31;68672;42.676;23.356;2023-06-14T00:03:17;18.44;79.35
79244;SHT31;68672;42.676;23.356;2023-06-14T00:05:43;18.43;79.29
79244;SHT31;68672;42.676;23.356;2023-06-14T00:08:12;18.44;79.26
79244;SHT31;68672;42.676;23.356;2023-06-14T00:10:41;18.46;79.22
79244;SHT31;68672;42.676;23.356;2023-06-14T00:13:08;18.43;79.17
79244;SHT31;68672;42.676;23.356;2023-06-14T00:15:34;18.46;79.10
79244;SHT31;68672;42.676;23.356;2023-06-14T00:18:03;18.43;79.04
79244;SHT31;68672;42.676;23.356;2023-06-14T00:20:30;18.44;78.99
79244;SHT31;68672;42.676;23.356;2023-06-14T00:22:56;18.46;79.00
79244;SHT31;68672;42.676;23.356;2023-06-14T00:25:23;18.44;78.97
79244;SHT31;68672;42.676;23.356;2023-06-14T00:27:51;18.44;79.01
79244;SHT31;68672;42.676;23.356;2023-06-14T00:30:17;18.40;79.13
79244;SHT31;68672;42.676;23.356;2023-06-14T00:32:43;18.38;79.26
79244;SHT31;68672;42.676;23.356;2023-06-14T00:35:09;18.40;79.27
79244;SHT31;68672;42.676;23.356;2023-06-14T00:37:37;18.37;79.32
79244;SHT31;68672;42.676;23.356;2023-06-14T00:40:04;18.37;79.37
79244;SHT31;68672;42.676;23.356;2023-06-14T00:42:30;18.37;79.30
79244;SHT31;68672;42.676;23.356;2023-06-14T00:44:56;18.40;79.31
79244;SHT31;68672;42.676;23.356;2023-06-14T00:47:22;18.40;79.23
79244;SHT31;68672;42.676;23.356;2023-06-14T00:49:49;18.43;79.26
79244;SHT31;68672;42.676;23.356;2023-06-14T00:52:15;18.40;79.18
79244;SHT31;68672;42.676;23.356;2023-06-14T00:54:47;18.41;79.12
79244;SHT31;68672;42.676;23.356;2023-06-14T00:57:13;18.41;79.02
79244;SHT31;68672;42.676;23.356;2023-06-14T00:59:43;18.40;78.97
79244;SHT31;68672;42.676;23.356;2023-06-14T01:02:09;18.38;78.98
79244;SHT31;68672;42.676;23.356;2023-06-14T01:04:35;18.37;79.12
79244;SHT31;68672;42.676;23.356;2023-06-14T01:13:03;18.37;79.16
79244;SHT31;68672;42.676;23.356;2023-06-14T01:15:31;18.37;79.18
79244;SHT31;68672;42.676;23.356;2023-06-14T01:17:57;18.37;79.20
79244;SHT31;68672;42.676;23.356;2023-06-14T01:20:32;18.40;79.15
79244;SHT31;68672;42.676;23.356;2023-06-14T01:22:59;18.41;79.21
79244;SHT31;68672;42.676;23.356;2023-06-14T01:25:27;18.37;79.23
79244;SHT31;68672;42.676;23.356;2023-06-14T01:27:57;18.40;79.15
79244;SHT31;68672;42.676;23.356;2023-06-14T01:30:24;18.40;79.17
79244;SHT31;68672;42.676;23.356;2023-06-14T01:32:54;18.38;79.24
79244;SHT31;68672;42.676;23.356;2023-06-14T01:35:21;18.34;79.23
79244;SHT31;68672;42.676;23.356;2023-06-14T01:37:47;18.37;79.30
79244;SHT31;68672;42.676;23.356;2023-06-14T01:40:14;18.40;79.37
79244;SHT31;68672;42.676;23.356;2023-06-14T01:42:40;18.38;79.42
79244;SHT31;68672;42.676;23.356;2023-06-14T01:45:07;18.37;79.34
79244;SHT31;68672;42.676;23.356;2023-06-14T01:47:34;18.41;79.40
79244;SHT31;68672;42.676;23.356;2023-06-14T01:50:02;18.40;79.52
79244;SHT31;68672;42.676;23.356;2023-06-14T01:52:27;18.37;79.53
79244;SHT31;68672;42.676;23.356;2023-06-14T01:54:53;18.36;79.56
79244;SHT31;68672;42.676;23.356;2023-06-14T01:57:18;18.33;79.60
79244;SHT31;68672;42.676;23.356;2023-06-14T01:59:44;18.33;79.66
79244;SHT31;68672;42.676;23.356;2023-06-14T02:02:14;18.32;79.75
79244;SHT31;68672;42.676;23.356;2023-06-14T02:04:39;18.30;79.76
79244;SHT31;68672;42.676;23.356;2023-06-14T02:07:05;18.32;79.69
79244;SHT31;68672;42.676;23.356;2023-06-14T02:09:30;18.30;79.66
79244;SHT31;68672;42.676;23.356;2023-06-14T02:11:56;18.30;79.58
79244;SHT31;68672;42.676;23.356;2023-06-14T02:14:21;18.27;79.48
79244;SHT31;68672;42.676;23.356;2023-06-14T02:16:47;18.29;79.42
79244;SHT31;68672;42.676;23.356;2023-06-14T02:19:17;18.26;79.41
79244;SHT31;68672;42.676;23.356;2023-06-14T02:21:46;18.26;79.34
79244;SHT31;68672;42.676;23.356;2023-06-14T02:24:12;18.26;79.30
79244;SHT31;68672;42.676;23.356;2023-06-14T02:26:44;18.23;79.34
79244;SHT31;68672;42.676;23.356;2023-06-14T02:29:10;18.23;79.28
79244;SHT31;68672;42.676;23.356;2023-06-14T02:31:40;18.19;79.32
79244;SHT31;68672;42.676;23.356;2023-06-14T02:34:06;18.22;79.30
79244;SHT31;68672;42.676;23.356;2023-06-14T02:36:37;18.20;79.26
79244;SHT31;68672;42.676;23.356;2023-06-14T02:39:08;18.17;79.23
79244;SHT31;68672;42.676;23.356;2023-06-14T02:41:36;18.17;79.21
79244;SHT31;68672;42.676;23.356;2023-06-14T02:44:02;18.14;79.26
79244;SHT31;68672;42.676;23.356;2023-06-14T02:46:27;18.13;79.29
79244;SHT31;68672;42.676;23.356;2023-06-14T02:48:53;18.10;79.36
79244;SHT31;68672;42.676;23.356;2023-06-14T02:51:21;18.07;79.26
79244;SHT31;68672;42.676;23.356;2023-06-14T02:53:46;18.07;79.31
79244;SHT31;68672;42.676;23.356;2023-06-14T02:56:12;18.09;79.29
79244;SHT31;68672;42.676;23.356;2023-06-14T02:58:37;18.07;79.17
79244;SHT31;68672;42.676;23.356;2023-06-14T03:01:05;18.02;79.15
79244;SHT31;68672;42.676;23.356;2023-06-14T03:03:35;18.03;79.25
79244;SHT31;68672;42.676;23.356;2023-06-14T03:06:00;18.00;79.19
79244;SHT31;68672;42.676;23.356;2023-06-14T03:08:30;17.96;79.26
79244;SHT31;68672;42.676;23.356;2023-06-14T03:10:57;17.96;79.21
79244;SHT31;68672;42.676;23.356;2023-06-14T03:13:22;17.90;79.28
79244;SHT31;68672;42.676;23.356;2023-06-14T03:15:48;17.85;79.37
79244;SHT31;68672;42.676;23.356;2023-06-14T03:18:16;17.85;79.32
79244;SHT31;68672;42.676;23.356;2023-06-14T03:20:42;17.83;79.32
79244;SHT31;68672;42.676;23.356;2023-06-14T03:23:11;17.79;79.30
79244;SHT31;68672;42.676;23.356;2023-06-14T03:25:37;17.76;79.28
79244;SHT31;68672;42.676;23.356;2023-06-14T03:28:06;17.72;79.31
79244;SHT31;68672;42.676;23.356;2023-06-14T03:30:32;17.74;79.34
79244;SHT31;68672;42.676;23.356;2023-06-14T03:32:58;17.72;79.41
79244;SHT31;68672;42.676;23.356;2023-06-14T03:35:26;17.72;79.44
79244;SHT31;68672;42.676;23.356;2023-06-14T03:37:52;17.72;79.49
79244;SHT31;68672;42.676;23.356;2023-06-14T03:40:18;17.71;79.61
79244;SHT31;68672;42.676;23.356;2023-06-14T03:42:45;17.72;79.52
79244;SHT31;68672;42.676;23.356;2023-06-14T03:45:10;17.74;79.51
79244;SHT31;68672;42.676;23.356;2023-06-14T03:47:36;17.74;79.50
79244;SHT31;68672;42.676;23.356;2023-06-14T03:50:04;17.76;79.53
79244;SHT31;68672;42.676;23.356;2023-06-14T03:52:30;17.76;79.56
79244;SHT31;68672;42.676;23.356;2023-06-14T03:54:56;17.81;79.53
79244;SHT31;68672;42.676;23.356;2023-06-14T03:57:23;17.82;79.64
79244;SHT31;68672;42.676;23.356;2023-06-14T03:59:48;17.88;79.54
79244;SHT31;68672;42.676;23.356;2023-06-14T04:02:15;17.90;79.43
79244;SHT31;68672;42.676;23.356;2023-06-14T04:04:41;17.95;79.47
79244;SHT31;68672;42.676;23.356;2023-06-14T04:07:12;17.96;79.38
79244;SHT31;68672;42.676;23.356;2023-06-14T04:09:39;18.00;79.29
79244;SHT31;68672;42.676;23.356;2023-06-14T04:12:05;18.00;79.27
79244;SHT31;68672;42.676;23.356;2023-06-14T04:14:31;18.05;79.33
79244;SHT31;68672;42.676;23.356;2023-06-14T04:16:58;18.06;79.34
79244;SHT31;68672;42.676;23.356;2023-06-14T04:19:26;18.07;79.45
79244;SHT31;68672;42.676;23.356;2023-06-14T04:21:52;18.13;79.40
79244;SHT31;68672;42.676;23.356;2023-06-14T04:24:17;18.17;79.25
79244;SHT31;68672;42.676;23.356;2023-06-14T04:26:44;18.14;79.20
79244;SHT31;68672;42.676;23.356;2023-06-14T04:29:21;18.19;79.37
79244;SHT31;68672;42.676;23.356;2023-06-14T04:31:48;18.23;79.31
79244;SHT31;68672;42.676;23.356;2023-06-14T04:34:14;18.29;79.14
79244;SHT31;68672;42.676;23.356;2023-06-14T04:36:43;18.33;78.98
79244;SHT31;68672;42.676;23.356;2023-06-14T04:39:20;18.34;78.79
79244;SHT31;68672;42.676;23.356;2023-06-14T04:41:46;18.40;78.65
79244;SHT31;68672;42.676;23.356;2023-06-14T04:44:12;18.43;78.55
79244;SHT31;68672;42.676;23.356;2023-06-14T04:46:38;18.50;78.50
79244;SHT31;68672;42.676;23.356;2023-06-14T04:49:17;18.54;78.26
79244;SHT31;68672;42.676;23.356;2023-06-14T04:51:44;18.57;78.10
79244;SHT31;68672;42.676;23.356;2023-06-14T04:54:10;18.58;78.00
79244;SHT31;68672;42.676;23.356;2023-06-14T04:56:38;18.58;77.94
79244;SHT31;68672;42.676;23.356;2023-06-14T04:59:04;18.63;77.83
79244;SHT31;68672;42.676;23.356;2023-06-14T05:01:30;18.65;77.56
79244;SHT31;68672;42.676;23.356;2023-06-14T05:03:57;18.71;77.37
79244;SHT31;68672;42.676;23.356;2023-06-14T05:06:23;18.77;76.96
79244;SHT31;68672;42.676;23.356;2023-06-14T05:08:49;18.84;76.63
79244;SHT31;68672;42.676;23.356;2023-06-14T05:11:14;18.89;76.56
79244;SHT31;68672;42.676;23.356;2023-06-14T05:13:41;18.92;76.71
79244;SHT31;68672;42.676;23.356;2023-06-14T05:16:07;18.95;76.74
79244;SHT31;68672;42.676;23.356;2023-06-14T05:18:32;18.98;76.81
79244;SHT31;68672;42.676;23.356;2023-06-14T05:21:05;18.99;76.90
79244;SHT31;68672;42.676;23.356;2023-06-14T05:23:30;19.04;76.93
79244;SHT31;68672;42.676;23.356;2023-06-14T05:25:56;19.11;76.94
79244;SHT31;68672;42.676;23.356;2023-06-14T05:28:22;19.14;76.82
79244;SHT31;68672;42.676;23.356;2023-06-14T05:30:47;19.20;76.62
79244;SHT31;68672;42.676;23.356;2023-06-14T05:33:13;19.25;76.34
79244;SHT31;68672;42.676;23.356;2023-06-14T05:35:38;19.30;76.18
79244;SHT31;68672;42.676;23.356;2023-06-14T05:38:06;19.36;76.07
79244;SHT31;68672;42.676;23.356;2023-06-14T05:40:33;19.42;75.91
79244;SHT31;68672;42.676;23.356;2023-06-14T05:43:01;19.47;75.73
79244;SHT31;68672;42.676;23.356;2023-06-14T05:45:27;19.53;75.53
79244;SHT31;68672;42.676;23.356;2023-06-14T05:47:52;19.56;75.40
79244;SHT31;68672;42.676;23.356;2023-06-14T05:50:20;19.62;75.24
79244;SHT31;68672;42.676;23.356;2023-06-14T05:52:45;19.66;75.13
79244;SHT31;68672;42.676;23.356;2023-06-14T05:55:11;19.69;75.14
79244;SHT31;68672;42.676;23.356;2023-06-14T05:57:37;19.67;75.26
79244;SHT31;68672;42.676;23.356;2023-06-14T06:00:03;19.74;75.32
79244;SHT31;68672;42.676;23.356;2023-06-14T06:02:35;19.77;75.35
79244;SHT31;68672;42.676;23.356;2023-06-14T06:05:01;19.80;75.48
79244;SHT31;68672;42.676;23.356;2023-06-14T06:07:27;19.86;75.41
79244;SHT31;68672;42.676;23.356;2023-06-14T06:09:52;19.87;75.36
79244;SHT31;68672;42.676;23.356;2023-06-14T06:12:18;19.93;75.25
79244;SHT31;68672;42.676;23.356;2023-06-14T06:14:43;19.98;75.19
79244;SHT31;68672;42.676;23.356;2023-06-14T06:17:09;20.03;75.10
79244;SHT31;68672;42.676;23.356;2023-06-14T06:19:34;20.08;74.38
79244;SHT31;68672;42.676;23.356;2023-06-14T06:22:00;20.07;74.11
79244;SHT31;68672;42.676;23.356;2023-06-14T06:24:25;20.07;73.87
79244;SHT31;68672;42.676;23.356;2023-06-14T06:26:51;20.08;74.09
79244;SHT31;68672;42.676;23.356;2023-06-14T06:29:16;20.05;74.16
79244;SHT31;68672;42.676;23.356;2023-06-14T06:31:44;20.07;74.36
79244;SHT31;68672;42.676;23.356;2023-06-14T06:34:11;20.03;74.46
79244;SHT31;68672;42.676;23.356;2023-06-14T06:36:36;20.00;74.47
79244;SHT31;68672;42.676;23.356;2023-06-14T06:39:02;20.00;74.50
79244;SHT31;68672;42.676;23.356;2023-06-14T06:41:34;20.03;74.68
79244;SHT31;68672;42.676;23.356;2023-06-14T06:44:01;19.98;74.87
79244;SHT31;68672;42.676;23.356;2023-06-14T06:46:27;19.98;75.02
79244;SHT31;68672;42.676;23.356;2023-06-14T06:48:52;20.00;74.83
79244;SHT31;68672;42.676;23.356;2023-06-14T06:51:18;20.01;74.53
79244;SHT31;68672;42.676;23.356;2023-06-14T06:53:52;20.01;74.33
79244;SHT31;68672;42.676;23.356;2023-06-14T06:56:18;20.05;74.28
79244;SHT31;68672;42.676;23.356;2023-06-14T06:58:44;20.01;74.32
79244;SHT31;68672;42.676;23.356;2023-06-14T07:01:10;19.98;74.24
79244;SHT31;68672;42.676;23.356;2023-06-14T07:03:35;20.01;74.22
79244;SHT31;68672;42.676;23.356;2023-06-14T07:06:01;20.04;74.16
79244;SHT31;68672;42.676;23.356;2023-06-14T07:08:26;20.07;74.11
79244;SHT31;68672;42.676;23.356;2023-06-14T07:10:52;20.10;74.16
79244;SHT31;68672;42.676;23.356;2023-06-14T07:13:17;20.14;74.24
79244;SHT31;68672;42.676;23.356;2023-06-14T07:15:43;20.21;74.26
79244;SHT31;68672;42.676;23.356;2023-06-14T07:18:11;20.31;74.24
79244;SHT31;68672;42.676;23.356;2023-06-14T07:20:36;20.39;74.04
79244;SHT31;68672;42.676;23.356;2023-06-14T07:23:03;20.51;74.03
79244;SHT31;68672;42.676;23.356;2023-06-14T07:25:35;20.56;73.98
79244;SHT31;68672;42.676;23.356;2023-06-14T07:28:01;20.65;73.95
79244;SHT31;68672;42.676;23.356;2023-06-14T07:30:27;20.75;73.25
79244;SHT31;68672;42.676;23.356;2023-06-14T07:32:53;20.82;72.73
79244;SHT31;68672;42.676;23.356;2023-06-14T07:35:18;20.93;72.45
79244;SHT31;68672;42.676;23.356;2023-06-14T07:37:49;21.07;71.65
79244;SHT31;68672;42.676;23.356;2023-06-14T07:40:15;21.26;70.71
79244;SHT31;68672;42.676;23.356;2023-06-14T07:42:41;21.34;70.05
79244;SHT31;68672;42.676;23.356;2023-06-14T07:45:06;21.37;69.69
79244;SHT31;68672;42.676;23.356;2023-06-14T07:47:32;21.44;69.52
79244;SHT31;68672;42.676;23.356;2023-06-14T07:49:58;21.47;69.46
79244;SHT31;68672;42.676;23.356;2023-06-14T07:52:23;21.50;69.48
79244;SHT31;68672;42.676;23.356;2023-06-14T07:54:48;21.58;69.36
79244;SHT31;68672;42.676;23.356;2023-06-14T07:57:14;21.64;69.08
79244;SHT31;68672;42.676;23.356;2023-06-14T07:59:40;21.62;68.49
79244;SHT31;68672;42.676;23.356;2023-06-14T08:02:06;21.61;68.51
79244;SHT31;68672;42.676;23.356;2023-06-14T08:04:32;21.65;67.97
79244;SHT31;68672;42.676;23.356;2023-06-14T08:06:57;21.71;68.31
79244;SHT31;68672;42.676;23.356;2023-06-14T08:09:25;21.78;68.93
79244;SHT31;68672;42.676;23.356;2023-06-14T08:11:52;21.86;68.94
79244;SHT31;68672;42.676;23.356;2023-06-14T08:14:18;21.95;68.94
79244;SHT31;68672;42.676;23.356;2023-06-14T08:16:43;22.12;68.70
79244;SHT31;68672;42.676;23.356;2023-06-14T08:19:11;22.24;68.18
79244;SHT31;68672;42.676;23.356;2023-06-14T08:21:37;22.35;67.45
79244;SHT31;68672;42.676;23.356;2023-06-14T08:24:03;22.43;66.05
79244;SHT31;68672;42.676;23.356;2023-06-14T08:26:32;22.54;65.91
79244;SHT31;68672;42.676;23.356;2023-06-14T08:28:57;22.61;65.80
79244;SHT31;68672;42.676;23.356;2023-06-14T08:31:23;22.73;64.96
79244;SHT31;68672;42.676;23.356;2023-06-14T08:33:50;22.83;64.77
79244;SHT31;68672;42.676;23.356;2023-06-14T08:36:19;22.87;64.60
79244;SHT31;68672;42.676;23.356;2023-06-14T08:38:44;23.02;64.72
79244;SHT31;68672;42.676;23.356;2023-06-14T08:41:11;23.12;64.32
79244;SHT31;68672;42.676;23.356;2023-06-14T08:43:38;23.28;62.76
79244;SHT31;68672;42.676;23.356;2023-06-14T08:46:05;23.32;62.40
79244;SHT31;68672;42.676;23.356;2023-06-14T08:48:31;23.49;61.71
79244;SHT31;68672;42.676;23.356;2023-06-14T08:51:00;23.63;60.70
79244;SHT31;68672;42.676;23.356;2023-06-14T08:53:32;23.79;60.61
79244;SHT31;68672;42.676;23.356;2023-06-14T08:56:02;23.92;60.68
79244;SHT31;68672;42.676;23.356;2023-06-14T08:58:32;24.06;60.35
79244;SHT31;68672;42.676;23.356;2023-06-14T09:01:00;24.13;57.60
79244;SHT31;68672;42.676;23.356;2023-06-14T09:03:26;24.20;57.86
79244;SHT31;68672;42.676;23.356;2023-06-14T09:06:01;24.31;57.52
79244;SHT31;68672;42.676;23.356;2023-06-14T09:08:31;24.44;57.63
79244;SHT31;68672;42.676;23.356;2023-06-14T09:10:57;24.54;57.26
79244;SHT31;68672;42.676;23.356;2023-06-14T09:13:22;24.55;57.81
79244;SHT31;68672;42.676;23.356;2023-06-14T09:15:54;24.57;58.32
79244;SHT31;68672;42.676;23.356;2023-06-14T09:18:19;24.49;58.09
79244;SHT31;68672;42.676;23.356;2023-06-14T09:20:45;24.44;57.70
79244;SHT31;68672;42.676;23.356;2023-06-14T09:23:12;24.42;58.58
79244;SHT31;68672;42.676;23.356;2023-06-14T09:25:45;24.41;58.70
79244;SHT31;68672;42.676;23.356;2023-06-14T09:28:11;24.41;58.81
79244;SHT31;68672;42.676;23.356;2023-06-14T09:30:39;24.45;58.97
79244;SHT31;68672;42.676;23.356;2023-06-14T09:33:05;24.48;58.94
79244;SHT31;68672;42.676;23.356;2023-06-14T09:35:34;24.59;57.94
79244;SHT31;68672;42.676;23.356;2023-06-14T09:37:59;24.78;57.16
79244;SHT31;68672;42.676;23.356;2023-06-14T09:40:26;24.89;56.88
79244;SHT31;68672;42.676;23.356;2023-06-14T09:42:52;24.93;56.93
79244;SHT31;68672;42.676;23.356;2023-06-14T09:45:17;25.03;54.73
79244;SHT31;68672;42.676;23.356;2023-06-14T09:47:49;25.22;54.74
79244;SHT31;68672;42.676;23.356;2023-06-14T09:50:14;25.37;55.53
79244;SHT31;68672;42.676;23.356;2023-06-14T09:52:41;25.46;53.87
79244;SHT31;68672;42.676;23.356;2023-06-14T09:55:12;25.40;53.36
79244;SHT31;68672;42.676;23.356;2023-06-14T09:57:41;25.34;53.34
79244;SHT31;68672;42.676;23.356;2023-06-14T10:00:08;25.44;53.64
79244;SHT31;68672;42.676;23.356;2023-06-14T10:02:37;25.54;53.39
79244;SHT31;68672;42.676;23.356;2023-06-14T10:05:04;25.54;51.90
79244;SHT31;68672;42.676;23.356;2023-06-14T10:07:42;25.53;52.55
79244;SHT31;68672;42.676;23.356;2023-06-14T10:10:09;25.47;52.31
79244;SHT31;68672;42.676;23.356;2023-06-14T10:12:35;25.48;53.28
79244;SHT31;68672;42.676;23.356;2023-06-14T10:15:02;25.56;53.96
79244;SHT31;68672;42.676;23.356;2023-06-14T10:17:42;25.67;54.52
79244;SHT31;68672;42.676;23.356;2023-06-14T10:23:04;25.78;53.97
79244;SHT31;68672;42.676;23.356;2023-06-14T10:25:33;26.01;53.64
79244;SHT31;68672;42.676;23.356;2023-06-14T10:28:18;26.06;50.99
79244;SHT31;68672;42.676;23.356;2023-06-14T10:31:09;25.95;51.17
79244;SHT31;68672;42.676;23.356;2023-06-14T10:33:56;25.82;51.93
79244;SHT31;68672;42.676;23.356;2023-06-14T10:39:19;25.91;51.19
79244;SHT31;68672;42.676;23.356;2023-06-14T10:41:56;26.11;51.39
79244;SHT31;68672;42.676;23.356;2023-06-14T10:46:49;26.42;50.04
79244;SHT31;68672;42.676;23.356;2023-06-14T10:49:18;26.72;50.80
79244;SHT31;68672;42.676;23.356;2023-06-14T10:51:53;26.80;50.82
79244;SHT31;68672;42.676;23.356;2023-06-14T10:54:22;26.83;50.29
79244;SHT31;68672;42.676;23.356;2023-06-14T10:56:51;26.87;50.21
79244;SHT31;68672;42.676;23.356;2023-06-14T10:59:19;26.88;49.98
79244;SHT31;68672;42.676;23.356;2023-06-14T11:04:13;26.84;50.98
79244;SHT31;68672;42.676;23.356;2023-06-14T11:07:17;26.77;51.50
79244;SHT31;68672;42.676;23.356;2023-06-14T11:12:33;26.88;49.51
79244;SHT31;68672;42.676;23.356;2023-06-14T11:15:01;27.00;47.95
79244;SHT31;68672;42.676;23.356;2023-06-14T11:17:26;27.07;47.82
79244;SHT31;68672;42.676;23.356;2023-06-14T11:20:10;27.15;47.21
79244;SHT31;68672;42.676;23.356;2023-06-14T11:22:41;27.27;47.33
79244;SHT31;68672;42.676;23.356;2023-06-14T11:25:09;27.46;46.61
79244;SHT31;68672;42.676;23.356;2023-06-14T11:27:35;27.58;46.58
79244;SHT31;68672;42.676;23.356;2023-06-14T11:30:00;27.76;46.07
79244;SHT31;68672;42.676;23.356;2023-06-14T11:32:26;27.92;46.61
79244;SHT31;68672;42.676;23.356;2023-06-14T11:34:51;28.07;45.40
79244;SHT31;68672;42.676;23.356;2023-06-14T11:37:20;28.21;45.06
79244;SHT31;68672;42.676;23.356;2023-06-14T11:39:48;28.20;45.76
79244;SHT31;68672;42.676;23.356;2023-06-14T11:42:20;28.28;45.98
79244;SHT31;68672;42.676;23.356;2023-06-14T11:44:46;28.36;43.71
79244;SHT31;68672;42.676;23.356;2023-06-14T11:47:12;28.44;43.88
79244;SHT31;68672;42.676;23.356;2023-06-14T11:49:41;28.55;43.46
79244;SHT31;68672;42.676;23.356;2023-06-14T11:52:07;28.55;43.54
79244;SHT31;68672;42.676;23.356;2023-06-14T11:54:33;28.57;44.99
79244;SHT31;68672;42.676;23.356;2023-06-14T11:56:59;28.55;42.97
79244;SHT31;68672;42.676;23.356;2023-06-14T11:59:24;28.54;43.02
79244;SHT31;68672;42.676;23.356;2023-06-14T12:01:53;28.40;43.44
79244;SHT31;68672;42.676;23.356;2023-06-14T12:04:27;28.48;42.60
79244;SHT31;68672;42.676;23.356;2023-06-14T12:06:52;28.57;43.47
79244;SHT31;68672;42.676;23.356;2023-06-14T12:09:21;28.61;43.57
79244;SHT31;68672;42.676;23.356;2023-06-14T12:11:48;28.68;43.33
79244;SHT31;68672;42.676;23.356;2023-06-14T12:14:14;28.76;43.36
79244;SHT31;68672;42.676;23.356;2023-06-14T12:16:40;28.84;43.24
79244;SHT31;68672;42.676;23.356;2023-06-14T12:19:12;28.74;42.88
79244;SHT31;68672;42.676;23.356;2023-06-14T12:21:38;28.81;43.50
79244;SHT31;68672;42.676;23.356;2023-06-14T12:24:06;28.68;43.58
79244;SHT31;68672;42.676;23.356;2023-06-14T12:26:32;28.51;43.90
79244;SHT31;68672;42.676;23.356;2023-06-14T12:28:57;28.36;43.15
79244;SHT31;68672;42.676;23.356;2023-06-14T12:31:23;28.14;44.11
79244;SHT31;68672;42.676;23.356;2023-06-14T12:33:49;27.90;44.78
79244;SHT31;68672;42.676;23.356;2023-06-14T12:36:14;27.82;45.18
79244;SHT31;68672;42.676;23.356;2023-06-14T12:38:41;27.72;45.43
79244;SHT31;68672;42.676;23.356;2023-06-14T12:41:06;27.56;46.42
79244;SHT31;68672;42.676;23.356;2023-06-14T12:43:33;27.45;45.16
79244;SHT31;68672;42.676;23.356;2023-06-14T12:45:59;27.31;44.93
79244;SHT31;68672;42.676;23.356;2023-06-14T12:48:25;27.27;45.20
79244;SHT31;68672;42.676;23.356;2023-06-14T12:50:52;27.10;45.77
79244;SHT31;68672;42.676;23.356;2023-06-14T12:53:18;26.96;45.77
79244;SHT31;68672;42.676;23.356;2023-06-14T12:55:43;26.82;46.15
79244;SHT31;68672;42.676;23.356;2023-06-14T12:58:09;26.72;46.44
79244;SHT31;68672;42.676;23.356;2023-06-14T13:00:37;26.64;46.87
79244;SHT31;68672;42.676;23.356;2023-06-14T13:03:03;26.53;46.95
79244;SHT31;68672;42.676;23.356;2023-06-14T13:05:29;26.46;46.99
79244;SHT31;68672;42.676;23.356;2023-06-14T13:07:56;26.39;46.55
79244;SHT31;68672;42.676;23.356;2023-06-14T13:10:21;26.31;46.32
79244;SHT31;68672;42.676;23.356;2023-06-14T13:12:47;26.22;46.36
79244;SHT31;68672;42.676;23.356;2023-06-14T13:15:12;26.14;46.80
79244;SHT31;68672;42.676;23.356;2023-06-14T13:17:38;26.08;49.06
79244;SHT31;68672;42.676;23.356;2023-06-14T13:20:10;25.87;50.39
79244;SHT31;68672;42.676;23.356;2023-06-14T13:22:39;25.66;51.02
79244;SHT31;68672;42.676;23.356;2023-06-14T13:25:05;25.39;51.82
79244;SHT31;68672;42.676;23.356;2023-06-14T13:27:30;25.09;52.19
79244;SHT31;68672;42.676;23.356;2023-06-14T13:29:56;24.78;52.95
79244;SHT31;68672;42.676;23.356;2023-06-14T13:32:22;24.51;54.73
79244;SHT31;68672;42.676;23.356;2023-06-14T13:34:48;24.21;56.87
79244;SHT31;68672;42.676;23.356;2023-06-14T13:37:13;23.92;58.16
79244;SHT31;68672;42.676;23.356;2023-06-14T13:39:39;23.56;60.17
79244;SHT31;68672;42.676;23.356;2023-06-14T13:42:04;23.21;61.82
79244;SHT31;68672;42.676;23.356;2023-06-14T13:44:30;22.94;63.99
79244;SHT31;68672;42.676;23.356;2023-06-14T13:46:55;22.63;63.38
79244;SHT31;68672;42.676;23.356;2023-06-14T13:49:22;22.39;64.45
79244;SHT31;68672;42.676;23.356;2023-06-14T13:51:47;22.16;64.15
79244;SHT31;68672;42.676;23.356;2023-06-14T13:54:13;21.99;64.83
79244;SHT31;68672;42.676;23.356;2023-06-14T13:56:41;21.79;65.51
79244;SHT31;68672;42.676;23.356;2023-06-14T13:59:10;21.62;65.33
79244;SHT31;68672;42.676;23.356;2023-06-14T14:01:36;21.50;65.94
79244;SHT31;68672;42.676;23.356;2023-06-14T14:04:01;21.41;66.31
79244;SHT31;68672;42.676;23.356;2023-06-14T14:06:30;21.38;67.20
79244;SHT31;68672;42.676;23.356;2023-06-14T14:08:56;21.33;66.79
79244;SHT31;68672;42.676;23.356;2023-06-14T14:11:21;21.34;66.41
79244;SHT31;68672;42.676;23.356;2023-06-14T14:13:47;21.31;66.44
79244;SHT31;68672;42.676;23.356;2023-06-14T14:16:13;21.28;67.37
79244;SHT31;68672;42.676;23.356;2023-06-14T14:18:39;21.26;68.28
79244;SHT31;68672;42.676;23.356;2023-06-14T14:21:04;21.24;68.63
79244;SHT31;68672;42.676;23.356;2023-06-14T14:23:30;21.22;68.72
79244;SHT31;68672;42.676;23.356;2023-06-14T14:25:55;21.20;68.37
79244;SHT31;68672;42.676;23.356;2023-06-14T14:28:21;21.17;67.72
79244;SHT31;68672;42.676;23.356;2023-06-14T14:30:47;21.14;67.70
79244;SHT31;68672;42.676;23.356;2023-06-14T14:33:16;21.20;69.91
79244;SHT31;68672;42.676;23.356;2023-06-14T14:35:43;21.23;69.91
79244;SHT31;68672;42.676;23.356;2023-06-14T14:38:11;21.31;70.02
79244;SHT31;68672;42.676;23.356;2023-06-14T14:40:37;21.35;69.86
79244;SHT31;68672;42.676;23.356;2023-06-14T14:43:04;21.41;69.85
79244;SHT31;68672;42.676;23.356;2023-06-14T14:45:32;21.51;69.83
79244;SHT31;68672;42.676;23.356;2023-06-14T14:47:57;21.54;69.77
79244;SHT31;68672;42.676;23.356;2023-06-14T14:50:23;21.57;70.08
79244;SHT31;68672;42.676;23.356;2023-06-14T14:52:48;21.61;69.81
79244;SHT31;68672;42.676;23.356;2023-06-14T14:55:14;21.64;69.38
79244;SHT31;68672;42.676;23.356;2023-06-14T14:57:43;21.62;69.10
79244;SHT31;68672;42.676;23.356;2023-06-14T15:00:08;21.58;69.07
79244;SHT31;68672;42.676;23.356;2023-06-14T15:02:37;21.54;69.47
79244;SHT31;68672;42.676;23.356;2023-06-14T15:05:03;21.51;69.49
79244;SHT31;68672;42.676;23.356;2023-06-14T15:07:31;21.47;69.88
79244;SHT31;68672;42.676;23.356;2023-06-14T15:09:58;21.41;70.26
79244;SHT31;68672;42.676;23.356;2023-06-14T15:12:24;21.35;70.13
79244;SHT31;68672;42.676;23.356;2023-06-14T15:14:50;21.33;70.28
79244;SHT31;68672;42.676;23.356;2023-06-14T15:17:17;21.30;70.36
79244;SHT31;68672;42.676;23.356;2023-06-14T15:19:44;21.24;70.41
79244;SHT31;68672;42.676;23.356;2023-06-14T15:22:09;21.22;70.88
79244;SHT31;68672;42.676;23.356;2023-06-14T15:24:35;21.16;70.99
79244;SHT31;68672;42.676;23.356;2023-06-14T15:27:00;21.14;71.17
79244;SHT31;68672;42.676;23.356;2023-06-14T15:29:26;21.14;71.49
79244;SHT31;68672;42.676;23.356;2023-06-14T15:31:51;21.11;71.56
79244;SHT31;68672;42.676;23.356;2023-06-14T15:34:19;21.16;71.60